Aeroporto :
LOGIN :

Iscrizione | Disclaimer

   EN    FR    IT 

 










Sommario :    VFR   VFR Marginale   IFR   IFR Intensivo   IFR Molto Intensivo
Visibilità : 
Base nubi : 
>= 8 km
>= 3000ft
5 / 8 km
1000 / 3000 ft
1500m / 5 km
500 / 1000 ft
800 / 1500m
200 / 500 ft
< 800m
< 200 ft
Simboli :   Temporali  Nebbia  Neve Forte  Precipitazioni Forti  Vento > 20 kt
SIGMETs :   Varie  Temporali  Ghiacco  Turbolenza  Onda orograficha  Ceneri Vulcaniche






- Altitudine del aeroporto : 39 ft
- Codice IATA : TRS


LIPQ - Friuli Venezia Giulia Apt. Trieste

ULTIMO METAR :
  • 231550Z AUTO 20002KT 9999 BKN097/// BKN130/// 21/17 Q1009

METARs OBSOLETI :
  • 231520Z AUTO 21004KT 9999 FEW021/// BKN087/// 21/17 Q1009
  • 231450Z AUTO 23006KT 200V260 9999 FEW052/// BKN088/// 21/17 Q1009
  • 231420Z AUTO 24005KT 210V280 9999 FEW020/// SCT100/// 22/17 Q1009
  • 231350Z AUTO 22007KT 190V260 9999 SCT015/// SCT170/// 22/17 Q1009
  • 231320Z AUTO 23008KT 9999 FEW015/// 21/17 Q1009

TAF TAF LIPQ
Valido dal 23 a 12 ore il 24 a 12 ore UTC


231100Z 2312/2412 VRB05KT 9999 SCT060
TEMPO 2312/2318 4000 SHRA



MetMap, La meteo Aeronautica in un colpo d'occhio ! - Copyright ORBIFLY Dicembre 2007 - Disclaimer

ORBIFLY MET'MAP TEAM :

Programmazione e sviluppo : Alexandra Zaïnal
Concezione : Baudouin d'Aumeries
Aiuto per la programmazione : Marc-Olivier Méhu
Supporto tecnico e logistico : Manuel Goepfert
Aiuto per la traduzione : Arnaldo La Scala

Contatto : metmap@orbifly.com




FONTI E CREDITI :

   NOAA